Time;durP1;ratioP1;P1;durP2;ratioP2;P2;SDS_P1;SDS_P2;PMS_P1;PMS_P2;Temp;Humidity;BMP_temperature;BMP_pressure;BME280_temperature;BME280_humidity;BME280_pressure;Samples;Min_cycle;Max_cycle;Signal;HPM_P1;HPM_P2
2023/03/31 00:01:56;;;;;;;13.38;9.48;;;11.20;80.10;;;;;;4994434;28;20064;-74
2023/03/31 00:04:24;;;;;;;17.88;10.43;;;11.20;79.20;;;;;;5013915;28;20056;-74
2023/03/31 00:06:53;;;;;;;14.43;10.40;;;11.20;79.40;;;;;;5011797;28;20050;-74
2023/03/31 00:09:23;;;;;;;16.45;10.52;;;11.30;79.50;;;;;;5013461;28;20143;-74
2023/03/31 00:11:51;;;;;;;19.23;10.40;;;11.30;79.50;;;;;;5031409;28;21309;-74
2023/03/31 00:14:22;;;;;;;18.20;10.77;;;11.30;79.50;;;;;;5031087;28;20057;-73
2023/03/31 00:16:50;;;;;;;15.38;10.27;;;11.20;80.30;;;;;;5013444;28;20044;-72
2023/03/31 00:19:17;;;;;;;18.67;10.27;;;11.10;80.70;;;;;;5013516;28;20133;-73
2023/03/31 00:21:50;;;;;;;16.80;10.25;;;11.00;81.20;;;;;;5026724;28;20121;-71
2023/03/31 00:24:17;;;;;;;15.07;10.60;;;11.00;81.50;;;;;;5005653;28;20100;-75
2023/03/31 00:26:47;;;;;;;16.05;10.13;;;11.10;82.20;;;;;;5024869;28;20046;-72
2023/03/31 00:29:16;;;;;;;17.42;10.07;;;10.90;82.40;;;;;;5003777;28;20508;-74
2023/03/31 00:31:47;;;;;;;19.80;11.45;;;11.00;82.70;;;;;;5004850;28;20123;-74
2023/03/31 00:34:17;;;;;;;14.25;10.45;;;11.20;82.90;;;;;;5012830;28;20095;-74
2023/03/31 00:36:47;;;;;;;20.27;11.43;;;11.20;83.20;;;;;;5004204;28;20073;-74
2023/03/31 00:39:18;;;;;;;20.63;10.57;;;11.40;83.40;;;;;;5012790;28;20412;-73
2023/03/31 00:41:46;;;;;;;20.70;11.02;;;11.50;83.80;;;;;;4997279;28;20393;-75
2023/03/31 00:44:21;;;;;;;20.48;11.77;;;11.40;84.40;;;;;;5029952;28;20052;-73
2023/03/31 00:47:21;;;;;;;16.95;10.88;;;11.40;85.30;;;;;;4996423;28;20045;-73
2023/03/31 00:49:55;;;;;;;19.03;11.43;;;11.30;86.30;;;;;;4988859;28;20466;-74
2023/03/31 00:52:36;;;;;;;16.45;11.60;;;11.30;86.70;;;;;;5012740;28;20493;-74
2023/03/31 00:55:17;;;;;;;14.43;10.77;;;11.30;87.30;;;;;;5020520;28;20034;-72
2023/03/31 00:57:46;;;;;;;17.00;11.40;;;11.20;87.50;;;;;;4993561;28;20049;-73
2023/03/31 01:00:22;;;;;;;14.85;9.93;;;11.00;87.90;;;;;;5003389;28;20042;-73
2023/03/31 01:02:57;;;;;;;18.10;10.82;;;11.10;88.10;;;;;;5011426;28;20457;-74
2023/03/31 01:05:49;;;;;;;16.80;9.93;;;10.90;88.90;;;;;;5006692;28;20437;-73
2023/03/31 01:08:26;;;;;;;13.63;10.07;;;11.00;88.80;;;;;;4991684;28;20045;-71
2023/03/31 01:10:59;;;;;;;18.80;10.07;;;11.00;88.70;;;;;;4997144;28;20048;-72
2023/03/31 01:13:38;;;;;;;20.00;11.85;;;10.80;88.90;;;;;;5011163;28;20457;-74
2023/03/31 01:16:06;;;;;;;17.38;10.30;;;10.90;89.30;;;;;;5004764;28;20424;-74
2023/03/31 01:18:34;;;;;;;16.20;10.20;;;10.50;90.30;;;;;;5000055;28;20052;-73
2023/03/31 01:21:29;;;;;;;13.40;8.80;;;10.40;89.90;;;;;;4997360;28;20042;-74
2023/03/31 01:24:37;;;;;;;16.05;8.65;;;10.50;89.10;;;;;;5040458;23;20055;-74
2023/03/31 01:27:07;;;;;;;14.43;9.10;;;10.80;88.00;;;;;;5042291;28;20041;-73
2023/03/31 01:29:35;;;;;;;18.58;11.18;;;10.80;87.50;;;;;;5013262;28;20045;-73
2023/03/31 01:32:18;;;;;;;17.15;10.15;;;10.50;89.70;;;;;;5013602;28;20054;-71
2023/03/31 01:35:14;;;;;;;18.40;10.70;;;10.30;90.80;;;;;;5031275;28;20488;-71
2023/03/31 01:38:17;;;;;;;19.15;10.07;;;10.30;91.10;;;;;;5049911;28;20038;-75
2023/03/31 01:41:13;;;;;;;19.27;10.43;;;10.50;90.60;;;;;;5032806;28;20042;-73
2023/03/31 01:44:13;;;;;;;19.58;11.68;;;10.30;91.20;;;;;;5036703;28;20404;-74
2023/03/31 01:46:48;;;;;;;19.58;11.43;;;10.30;91.40;;;;;;5013449;28;20083;-75
2023/03/31 01:49:45;;;;;;;17.25;10.95;;;10.40;91.60;;;;;;5028894;28;20041;-74
2023/03/31 01:52:28;;;;;;;20.98;11.65;;;10.50;91.70;;;;;;5031313;28;20045;-72
2023/03/31 01:55:11;;;;;;;20.55;11.63;;;10.60;91.70;;;;;;5017526;28;20187;-73
2023/03/31 01:58:05;;;;;;;15.73;11.60;;;10.70;91.80;;;;;;5031967;28;20056;-75
2023/03/31 02:00:40;;;;;;;22.77;12.30;;;10.60;92.00;;;;;;5049869;28;20551;-74
2023/03/31 02:03:23;;;;;;;18.17;11.93;;;10.60;92.10;;;;;;5016541;28;20068;-75
2023/03/31 02:05:57;;;;;;;16.35;11.30;;;10.50;92.50;;;;;;5032357;28;20049;-73
2023/03/31 02:08:31;;;;;;;25.73;12.80;;;10.50;92.60;;;;;;5033690;28;20056;-72
2023/03/31 02:10:58;;;;;;;18.90;11.98;;;10.50;92.60;;;;;;5027279;28;20042;-73
2023/03/31 02:13:33;;;;;;;19.00;11.05;;;10.50;93.00;;;;;;5034411;28;20080;-74
2023/03/31 02:16:14;;;;;;;21.42;12.55;;;10.30;93.80;;;;;;5025928;28;20037;-74
2023/03/31 02:18:51;;;;;;;20.05;11.93;;;10.10;94.50;;;;;;5039109;28;20048;-76
2023/03/31 02:21:32;;;;;;;17.20;11.73;;;10.10;94.80;;;;;;5034419;28;20041;-75
2023/03/31 02:24:11;;;;;;;19.92;11.52;;;10.20;95.50;;;;;;5016580;28;20401;-76
2023/03/31 02:26:54;;;;;;;18.00;12.15;;;10.20;95.20;;;;;;5030433;28;20046;-76
2023/03/31 02:29:26;;;;;;;20.75;12.25;;;10.20;95.00;;;;;;5032032;28;20424;-74
2023/03/31 02:32:18;;;;;;;26.58;13.90;;;10.30;95.10;;;;;;5021691;28;20048;-74
2023/03/31 02:34:48;;;;;;;18.45;12.00;;;10.30;94.80;;;;;;5027901;28;20115;-75
2023/03/31 02:37:18;;;;;;;19.40;12.15;;;10.20;95.40;;;;;;5039661;28;20354;-76
2023/03/31 02:39:51;;;;;;;18.80;12.10;;;10.10;96.20;;;;;;5035601;28;20143;-75
2023/03/31 02:42:26;;;;;;;21.23;12.15;;;10.00;97.10;;;;;;5035790;28;20041;-75
2023/03/31 02:45:05;;;;;;;17.83;11.88;;;9.90;98.00;;;;;;5041879;28;20535;-76
2023/03/31 02:47:38;;;;;;;17.75;11.57;;;9.90;98.80;;;;;;5035779;28;20057;-76
2023/03/31 02:50:12;;;;;;;19.10;11.35;;;9.90;99.50;;;;;;5044456;28;20124;-74
2023/03/31 02:53:00;;;;;;;15.95;11.35;;;9.80;99.90;;;;;;5020131;28;20080;-75
2023/03/31 02:55:51;;;;;;;15.77;11.27;;;9.90;99.90;;;;;;5033457;28;20527;-74
2023/03/31 02:59:16;;;;;;;17.88;11.57;;;9.90;99.90;;;;;;5024665;28;20481;-74
2023/03/31 03:02:00;;;;;;;16.42;11.40;;;9.80;99.90;;;;;;5001479;28;20477;-74
2023/03/31 03:04:52;;;;;;;18.10;11.50;;;9.60;99.90;;;;;;5039743;28;20045;-73
2023/03/31 03:07:37;;;;;;;17.63;11.40;;;9.60;99.90;;;;;;5016108;28;20057;-73
2023/03/31 03:10:48;;;;;;;19.10;11.23;;;9.70;99.90;;;;;;5026340;28;20056;-74
2023/03/31 03:13:39;;;;;;;16.98;11.43;;;9.80;99.90;;;;;;5029408;28;20045;-73
2023/03/31 03:16:12;;;;;;;17.90;11.02;;;9.60;99.90;;;;;;5023718;28;20045;-75
2023/03/31 03:18:42;;;;;;;;;;;9.60;99.90;;;;;;5034197;28;20045;-73
2023/03/31 03:21:13;;;;;;;18.48;11.32;;;9.60;99.90;;;;;;5035120;28;19982;-74
2023/03/31 03:23:42;;;;;;;22.63;13.48;;;9.50;99.90;;;;;;5037050;23;20136;-74
2023/03/31 03:26:20;;;;;;;20.73;13.35;;;9.30;99.90;;;;;;5018216;28;20146;-73
2023/03/31 03:28:53;;;;;;;22.05;13.68;;;9.40;99.90;;;;;;5018740;28;20399;-75
2023/03/31 03:31:29;;;;;;;17.98;12.55;;;9.50;99.90;;;;;;5014643;28;20073;-74
2023/03/31 03:33:56;;;;;;;19.52;12.57;;;9.60;99.90;;;;;;5011193;28;20459;-74
2023/03/31 03:36:24;;;;;;;21.08;13.90;;;9.60;99.90;;;;;;4998203;28;20038;-74
2023/03/31 03:38:52;;;;;;;17.65;12.25;;;9.60;99.90;;;;;;5011497;28;20045;-74
2023/03/31 03:41:22;;;;;;;17.92;12.30;;;9.60;99.90;;;;;;5043646;23;20049;-74
2023/03/31 03:43:51;;;;;;;16.92;11.35;;;9.60;99.90;;;;;;5027809;28;20041;-75
2023/03/31 03:46:19;;;;;;;19.38;12.68;;;9.50;99.90;;;;;;5030658;28;20527;-73
2023/03/31 03:48:46;;;;;;;17.08;11.15;;;9.40;99.90;;;;;;5031203;28;20091;-75
2023/03/31 03:51:16;;;;;;;23.45;11.57;;;9.50;99.90;;;;;;5031583;28;20400;-75
2023/03/31 03:53:47;;;;;;;19.67;12.25;;;9.50;99.90;;;;;;5028184;28;20045;-73
2023/03/31 03:56:14;;;;;;;22.05;12.15;;;9.40;99.90;;;;;;5038614;28;20051;-73
2023/03/31 03:58:42;;;;;;;18.35;11.85;;;9.00;99.90;;;;;;5036133;28;20492;-73
2023/03/31 04:01:09;;;;;;;15.13;11.10;;;8.80;99.90;;;;;;5017739;28;20045;-72
2023/03/31 04:03:37;;;;;;;19.10;11.70;;;9.10;99.90;;;;;;5015701;28;20396;-73
2023/03/31 04:06:08;;;;;;;18.27;11.57;;;9.10;99.90;;;;;;5042702;28;20056;-73
2023/03/31 04:08:37;;;;;;;18.67;11.00;;;9.30;99.90;;;;;;5026485;28;20107;-74
2023/03/31 04:11:16;;;;;;;18.88;11.07;;;8.90;99.90;;;;;;5039133;28;20048;-72
2023/03/31 04:13:47;;;;;;;17.92;10.75;;;9.00;99.90;;;;;;5035979;28;20072;-73
2023/03/31 04:16:24;;;;;;;20.45;11.77;;;9.20;99.90;;;;;;5039071;28;20405;-73
2023/03/31 04:18:57;;;;;;;22.45;12.38;;;9.30;99.90;;;;;;5014671;28;20051;-73
2023/03/31 04:21:49;;;;;;;20.83;11.93;;;9.30;99.90;;;;;;5029702;28;20029;-73
2023/03/31 04:24:20;;;;;;;18.20;12.10;;;9.10;99.90;;;;;;5014209;28;20132;-73
2023/03/31 04:26:58;;;;;;;18.05;11.52;;;9.10;99.90;;;;;;5014241;28;20049;-74
2023/03/31 04:29:41;;;;;;;19.80;13.25;;;9.10;99.90;;;;;;5029789;28;20065;-75
2023/03/31 04:32:08;;;;;;;18.27;11.85;;;8.90;99.90;;;;;;5049027;28;20377;-73
2023/03/31 04:34:45;;;;;;;18.90;11.98;;;8.70;99.90;;;;;;5044960;28;20037;-73
2023/03/31 04:37:17;;;;;;;21.77;12.85;;;8.80;99.90;;;;;;5027826;28;20140;-74
2023/03/31 04:39:45;;;;;;;19.98;11.55;;;8.80;99.90;;;;;;5018417;28;20057;-76
2023/03/31 04:42:13;;;;;;;19.17;12.00;;;8.60;99.90;;;;;;5011863;28;20057;-74
2023/03/31 04:44:40;;;;;;;20.00;11.88;;;8.70;99.90;;;;;;5023247;28;20450;-73
2023/03/31 04:47:31;;;;;;;21.63;12.73;;;8.60;99.90;;;;;;5018185;28;20064;-73
2023/03/31 04:50:03;;;;;;;18.67;12.30;;;8.60;99.90;;;;;;5029687;28;20433;-74
2023/03/31 04:52:32;;;;;;;20.88;11.57;;;8.90;99.90;;;;;;5033288;28;20103;-74
2023/03/31 04:55:00;;;;;;;27.13;12.07;;;8.90;99.90;;;;;;5020173;28;20051;-74
2023/03/31 04:57:31;;;;;;;16.40;10.63;;;8.90;99.90;;;;;;5020981;28;20527;-73
2023/03/31 04:59:58;;;;;;;19.98;11.00;;;8.80;99.90;;;;;;5031583;28;20407;-74
2023/03/31 05:02:27;;;;;;;14.43;10.88;;;8.70;99.90;;;;;;5015313;28;20030;-74
2023/03/31 05:04:58;;;;;;;17.88;11.88;;;8.90;99.90;;;;;;5015780;28;20050;-73
2023/03/31 05:07:34;;;;;;;18.13;11.38;;;8.80;99.90;;;;;;5015622;28;20046;-73
2023/03/31 05:10:01;;;;;;;16.92;10.73;;;8.70;99.90;;;;;;5022290;28;20098;-74
2023/03/31 05:12:35;;;;;;;16.27;10.73;;;8.70;99.90;;;;;;5036285;28;20045;-75
2023/03/31 05:15:49;;;;;;;23.45;15.10;;;8.60;99.90;;;;;;5040453;28;20112;-76
2023/03/31 05:18:31;;;;;;;24.33;14.23;;;9.00;99.90;;;;;;5026614;28;20530;-76
2023/03/31 05:21:08;;;;;;;56.38;35.00;;;9.10;99.90;;;;;;5054416;28;20037;-74
2023/03/31 05:23:35;;;;;;;98.47;60.42;;;9.40;99.90;;;;;;5019260;28;20153;-76
2023/03/31 05:26:03;;;;;;;71.47;40.53;;;9.50;99.90;;;;;;5045776;28;20106;-75
2023/03/31 05:28:31;;;;;;;42.47;22.73;;;9.50;99.90;;;;;;5031311;28;20056;-76
2023/03/31 05:31:05;;;;;;;36.28;21.85;;;9.50;99.90;;;;;;5044300;28;20041;-74
2023/03/31 05:33:40;;;;;;;20.15;14.02;;;9.50;99.90;;;;;;5024733;28;20037;-77
2023/03/31 05:36:15;;;;;;;18.88;12.05;;;9.30;99.90;;;;;;5015574;28;20042;-77
2023/03/31 05:38:43;;;;;;;20.00;12.30;;;9.40;99.90;;;;;;5031526;28;20073;-73
2023/03/31 05:41:27;;;;;;;17.35;11.43;;;9.50;99.90;;;;;;5046289;28;20049;-74
2023/03/31 05:43:58;;;;;;;18.55;12.20;;;9.60;99.90;;;;;;5055572;28;20053;-71
2023/03/31 05:46:26;;;;;;;20.08;11.32;;;9.80;99.90;;;;;;5063361;28;20049;-74
2023/03/31 05:48:53;;;;;;;18.13;11.57;;;9.70;99.90;;;;;;5046380;28;20045;-77
2023/03/31 05:51:23;;;;;;;18.42;11.80;;;9.80;99.90;;;;;;5033251;28;20056;-76
2023/03/31 05:53:50;;;;;;;18.57;11.47;;;9.90;99.90;;;;;;5045410;28;20091;-75
2023/03/31 05:56:17;;;;;;;22.88;11.35;;;9.90;99.90;;;;;;5017007;28;20072;-73
2023/03/31 05:58:45;;;;;;;22.73;12.40;;;9.80;99.90;;;;;;5037191;28;20420;-80
2023/03/31 06:01:22;;;;;;;20.70;11.65;;;9.60;99.90;;;;;;5034363;28;20045;-72
2023/03/31 06:03:52;;;;;;;15.98;11.00;;;9.60;99.90;;;;;;5050720;28;20044;-76
2023/03/31 06:06:20;;;;;;;18.00;10.90;;;9.80;99.90;;;;;;5038143;28;20053;-76
2023/03/31 06:08:48;;;;;;;19.42;11.98;;;9.90;99.90;;;;;;5029677;28;20048;-77
2023/03/31 06:11:18;;;;;;;145.55;80.72;;;10.00;99.90;;;;;;5032829;28;20056;-76
2023/03/31 06:13:46;;;;;;;51.40;33.13;;;10.30;99.90;;;;;;5038374;28;20106;-74
2023/03/31 06:16:16;;;;;;;26.63;17.05;;;10.40;99.90;;;;;;5036724;28;20068;-75
2023/03/31 06:18:44;;;;;;;21.50;11.95;;;10.40;99.90;;;;;;5040979;28;20468;-77
2023/03/31 06:21:15;;;;;;;15.43;10.63;;;10.10;99.90;;;;;;5032518;28;20044;-76
2023/03/31 06:23:45;;;;;;;19.20;9.63;;;9.80;99.90;;;;;;5033157;28;20378;-76
2023/03/31 06:26:17;;;;;;;17.48;10.38;;;9.90;99.90;;;;;;5051502;28;20188;-77
2023/03/31 06:28:45;;;;;;;18.40;11.48;;;10.00;99.90;;;;;;5036933;28;20176;-76
2023/03/31 06:31:16;;;;;;;21.77;10.75;;;10.10;99.90;;;;;;5041851;28;20048;-78
2023/03/31 06:33:43;;;;;;;15.02;10.60;;;10.20;99.90;;;;;;5043814;28;20044;-78
2023/03/31 06:36:13;;;;;;;16.58;9.85;;;10.10;99.90;;;;;;5020132;28;20052;-76
2023/03/31 06:38:44;;;;;;;16.23;10.43;;;10.40;99.90;;;;;;5044609;28;20036;-77
2023/03/31 06:41:13;;;;;;;18.83;11.38;;;10.60;99.90;;;;;;5029567;28;20177;-78
2023/03/31 06:43:41;;;;;;;18.10;10.98;;;10.60;99.90;;;;;;5029667;28;20045;-74
2023/03/31 06:46:33;;;;;;;15.02;10.80;;;10.70;99.90;;;;;;5038655;28;20045;-76
2023/03/31 06:49:01;;;;;;;24.80;11.85;;;10.90;99.90;;;;;;5044099;28;20048;-75
2023/03/31 06:51:33;;;;;;;19.17;11.20;;;10.90;99.90;;;;;;5031353;28;20044;-75
2023/03/31 06:54:01;;;;;;;19.02;11.07;;;11.10;99.90;;;;;;5014439;28;20044;-78
2023/03/31 06:56:35;;;;;;;14.65;10.13;;;11.20;99.90;;;;;;5021520;28;20054;-78
2023/03/31 06:59:10;;;;;;;15.85;10.23;;;11.30;99.20;;;;;;5017877;28;20137;-77
2023/03/31 07:01:54;;;;;;;17.55;10.45;;;11.30;99.20;;;;;;5031545;28;20034;-77
2023/03/31 07:04:21;;;;;;;15.32;10.68;;;11.30;99.20;;;;;;5034163;23;20406;-78
2023/03/31 07:06:49;;;;;;;18.77;10.90;;;11.40;99.00;;;;;;5032610;28;20413;-74
2023/03/31 07:09:17;;;;;;;17.52;10.55;;;11.40;99.40;;;;;;5022789;28;20041;-74
2023/03/31 07:11:44;;;;;;;21.17;11.77;;;11.40;99.20;;;;;;5038925;28;20091;-75
2023/03/31 07:14:12;;;;;;;18.02;11.00;;;11.20;99.60;;;;;;5023617;28;20051;-74
2023/03/31 07:16:39;;;;;;;17.15;11.07;;;11.40;99.90;;;;;;5050369;28;20037;-73
2023/03/31 07:19:09;;;;;;;19.75;12.60;;;11.70;99.90;;;;;;5015610;28;20050;-74
2023/03/31 07:21:37;;;;;;;22.23;11.27;;;11.80;99.50;;;;;;5028645;28;20046;-76
2023/03/31 07:24:06;;;;;;;16.75;10.43;;;11.90;99.00;;;;;;5014179;28;20497;-76
2023/03/31 07:26:51;;;;;;;16.90;10.30;;;11.90;98.60;;;;;;5001733;28;20091;-74
2023/03/31 07:29:19;;;;;;;17.17;11.50;;;11.90;98.30;;;;;;5033070;28;20431;-72
2023/03/31 07:31:56;;;;;;;15.98;10.40;;;12.00;98.50;;;;;;5033040;28;20038;-77
2023/03/31 07:34:23;;;;;;;13.30;10.02;;;11.90;97.50;;;;;;5015651;28;20128;-76
2023/03/31 07:36:57;;;;;;;17.05;9.93;;;12.00;97.50;;;;;;5018711;28;20041;-77
2023/03/31 07:39:30;;;;;;;16.50;8.65;;;12.20;97.20;;;;;;5018329;28;20068;-76
2023/03/31 07:42:00;;;;;;;15.98;8.05;;;12.30;96.10;;;;;;5005979;28;20400;-78
2023/03/31 07:44:36;;;;;;;13.20;8.00;;;12.30;94.70;;;;;;5008043;28;20057;-75
2023/03/31 07:47:07;;;;;;;10.32;7.57;;;12.50;93.80;;;;;;5034200;28;20141;-76
2023/03/31 07:49:47;;;;;;;13.00;7.53;;;12.50;93.40;;;;;;5019006;28;20049;-78
2023/03/31 07:52:31;;;;;;;11.60;8.00;;;12.50;94.00;;;;;;5008829;28;20057;-78
2023/03/31 07:55:08;;;;;;;13.18;7.78;;;12.70;93.30;;;;;;5017962;28;20096;-78
2023/03/31 07:57:39;;;;;;;11.55;7.70;;;12.70;92.90;;;;;;5032789;28;20051;-74
2023/03/31 08:00:26;;;;;;;12.57;7.68;;;12.70;92.70;;;;;;5051688;28;20037;-75
2023/03/31 08:03:18;;;;;;;11.50;6.90;;;12.80;92.20;;;;;;5027116;28;20087;-78
2023/03/31 08:05:51;;;;;;;13.23;6.95;;;12.90;91.60;;;;;;5033074;28;20048;-73
2023/03/31 08:08:21;;;;;;;11.25;7.60;;;13.00;91.70;;;;;;5049663;28;20037;-77
2023/03/31 08:10:52;;;;;;;10.73;7.00;;;13.10;91.10;;;;;;5022169;28;20076;-73
2023/03/31 08:13:23;;;;;;;10.52;7.60;;;13.40;91.30;;;;;;5049684;28;20029;-78
2023/03/31 08:16:05;;;;;;;10.63;6.85;;;13.60;91.50;;;;;;5029860;28;20180;-78
2023/03/31 08:18:36;;;;;;;13.50;7.50;;;13.70;90.90;;;;;;5031231;28;20128;-77
2023/03/31 08:21:18;;;;;;;11.70;7.78;;;13.60;90.30;;;;;;5033599;28;20056;-77
2023/03/31 08:23:53;;;;;;;13.85;8.13;;;13.60;89.50;;;;;;5026500;28;20033;-74
2023/03/31 08:26:24;;;;;;;;;;;13.60;90.20;;;;;;5031958;28;20401;-77
2023/03/31 08:28:57;;;;;;;11.93;7.07;;;13.80;90.20;;;;;;5020400;28;19925;-77
2023/03/31 08:34:45;;;;;;;11.93;6.75;;;14.20;86.90;;;;;;5044486;28;20042;-75
2023/03/31 08:37:32;;;;;;;12.00;7.15;;;14.30;86.80;;;;;;5026043;28;20389;-76
2023/03/31 08:40:04;;;;;;;11.32;6.60;;;14.60;86.40;;;;;;5020281;28;20049;-76
2023/03/31 08:43:06;;;;;;;10.10;6.40;;;14.70;86.30;;;;;;5043870;28;20083;-74
2023/03/31 08:45:41;;;;;;;8.35;5.63;;;14.80;84.60;;;;;;5028467;28;20565;-78
2023/03/31 08:48:54;;;;;;;9.50;6.22;;;15.00;83.80;;;;;;5042457;28;20068;-78
2023/03/31 08:51:45;;;;;;;11.90;6.20;;;15.10;81.90;;;;;;5029594;28;20048;-74
2023/03/31 08:54:33;;;;;;;9.88;5.78;;;15.30;81.30;;;;;;5037408;28;20048;-74
2023/03/31 08:57:02;;;;;;;7.78;5.53;;;15.50;81.00;;;;;;5049367;28;20489;-77
2023/03/31 08:59:57;;;;;;;8.48;4.93;;;15.70;79.20;;;;;;5046086;28;20029;-77
2023/03/31 09:02:51;;;;;;;8.38;5.07;;;15.80;77.50;;;;;;5033530;28;20090;-76
2023/03/31 09:05:48;;;;;;;8.88;5.28;;;15.90;77.10;;;;;;5052036;23;20132;-77
2023/03/31 09:08:35;;;;;;;10.57;4.82;;;16.00;75.80;;;;;;5028991;28;20040;-72
2023/03/31 09:11:10;;;;;;;10.10;4.40;;;16.20;75.60;;;;;;5033719;28;20475;-75
2023/03/31 09:13:53;;;;;;;5.97;3.60;;;16.30;74.30;;;;;;5037896;28;20040;-76
2023/03/31 09:16:42;;;;;;;6.78;3.75;;;16.50;73.10;;;;;;5041296;28;20120;-74
2023/03/31 09:19:18;;;;;;;6.07;3.97;;;16.70;73.10;;;;;;5027191;28;20057;-77
2023/03/31 09:21:52;;;;;;;6.53;3.67;;;17.10;73.00;;;;;;5017209;28;20117;-76
2023/03/31 09:25:15;;;;;;;6.38;3.33;;;17.20;71.60;;;;;;5041609;28;20474;-76
2023/03/31 09:27:47;;;;;;;7.13;3.83;;;17.20;71.60;;;;;;5015229;28;20045;-76
2023/03/31 09:30:28;;;;;;;8.32;3.83;;;17.10;70.70;;;;;;5033177;28;20235;-77
2023/03/31 09:33:17;;;;;;;8.85;3.80;;;17.30;70.30;;;;;;5050219;28;20445;-73
2023/03/31 09:35:45;;;;;;;8.48;3.67;;;17.10;70.30;;;;;;5055904;28;20048;-77
2023/03/31 09:38:18;;;;;;;5.70;3.33;;;17.30;70.20;;;;;;5034300;28;20073;-74
2023/03/31 09:40:45;;;;;;;6.53;3.25;;;17.50;69.90;;;;;;5033969;28;20492;-76
2023/03/31 09:43:23;;;;;;;8.90;3.40;;;17.40;68.70;;;;;;5024358;28;20049;-74
2023/03/31 09:45:53;;;;;;;4.63;2.70;;;17.30;68.90;;;;;;5036283;28;20393;-74
2023/03/31 09:48:37;;;;;;;33.13;5.00;;;17.30;69.60;;;;;;5048319;28;20463;-75
2023/03/31 09:51:13;;;;;;;14.23;4.50;;;17.50;71.10;;;;;;5047170;28;20090;-72
2023/03/31 09:53:52;;;;;;;13.45;4.60;;;17.70;70.10;;;;;;5033518;28;20088;-69
2023/03/31 09:56:54;;;;;;;7.32;4.05;;;18.00;69.40;;;;;;5046701;28;20041;-74
2023/03/31 09:59:50;;;;;;;8.32;3.63;;;18.10;67.90;;;;;;5032776;28;20052;-74
2023/03/31 10:02:26;;;;;;;6.25;3.30;;;18.00;68.00;;;;;;5019759;28;20072;-75
2023/03/31 10:05:20;;;;;;;5.28;2.88;;;17.90;67.90;;;;;;5030970;28;20053;-73
2023/03/31 10:08:15;;;;;;;6.00;3.22;;;17.80;66.80;;;;;;5041600;28;20090;-74
2023/03/31 10:11:08;;;;;;;6.15;3.70;;;17.90;66.10;;;;;;5052414;28;20069;-74
2023/03/31 10:14:05;;;;;;;8.15;4.00;;;18.10;68.70;;;;;;5017324;28;20048;-75
2023/03/31 10:16:57;;;;;;;6.80;3.20;;;18.30;68.20;;;;;;5051592;28;20045;-74
2023/03/31 10:19:30;;;;;;;8.85;3.30;;;18.10;67.40;;;;;;5030162;28;20060;-76
2023/03/31 10:22:13;;;;;;;5.63;3.20;;;18.00;69.10;;;;;;5035834;28;20045;-74
2023/03/31 10:25:03;;;;;;;7.50;3.28;;;18.10;68.90;;;;;;5052258;28;20032;-74
2023/03/31 10:27:46;;;;;;;9.02;3.22;;;18.50;69.40;;;;;;5040824;28;20049;-75
2023/03/31 10:30:21;;;;;;;8.48;3.28;;;18.70;67.20;;;;;;5047580;28;20036;-75
2023/03/31 10:32:49;;;;;;;5.90;3.22;;;18.80;66.60;;;;;;5055397;28;20142;-75
2023/03/31 10:35:32;;;;;;;6.93;3.17;;;18.80;65.30;;;;;;5020120;28;20048;-74
2023/03/31 10:38:09;;;;;;;5.88;2.95;;;19.10;66.50;;;;;;5023246;28;20052;-73
2023/03/31 10:40:48;;;;;;;7.90;3.50;;;19.40;65.30;;;;;;5054001;28;20036;-75
2023/03/31 10:43:17;;;;;;;6.50;3.53;;;19.40;65.00;;;;;;5035428;28;20048;-77
2023/03/31 10:45:50;;;;;;;7.07;3.30;;;20.10;65.90;;;;;;5047764;28;20036;-76
2023/03/31 10:48:27;;;;;;;6.75;2.92;;;20.60;63.10;;;;;;5042180;28;20102;-76
2023/03/31 10:51:15;;;;;;;6.65;3.50;;;20.30;62.40;;;;;;5029573;28;20048;-74
2023/03/31 10:53:51;;;;;;;5.13;3.03;;;20.30;63.30;;;;;;5034922;28;20041;-74
2023/03/31 10:56:40;;;;;;;8.82;3.10;;;20.10;63.60;;;;;;5022675;28;20498;-75
2023/03/31 10:59:19;;;;;;;6.43;3.40;;;20.00;63.60;;;;;;5032361;28;20057;-74
2023/03/31 11:01:56;;;;;;;6.55;2.80;;;20.00;63.80;;;;;;5018222;28;20090;-76
2023/03/31 11:04:27;;;;;;;6.68;3.13;;;19.90;62.30;;;;;;5041424;28;20159;-74
2023/03/31 11:07:30;;;;;;;8.30;3.28;;;19.70;62.40;;;;;;5063571;28;20504;-74
2023/03/31 11:10:09;;;;;;;5.50;2.78;;;19.90;62.30;;;;;;5047252;28;20399;-72
2023/03/31 11:13:19;;;;;;;4.93;2.70;;;20.00;61.70;;;;;;5038148;28;20035;-74
2023/03/31 11:16:02;;;;;;;5.07;2.67;;;19.90;61.00;;;;;;5037272;28;20060;-77
2023/03/31 11:18:42;;;;;;;7.53;2.92;;;20.00;60.90;;;;;;5032110;28;20069;-75
2023/03/31 11:21:26;;;;;;;5.85;2.38;;;20.70;62.10;;;;;;5052999;28;20053;-75
2023/03/31 11:24:02;;;;;;;4.95;2.58;;;20.90;58.80;;;;;;5059590;28;20029;-74
2023/03/31 11:26:35;;;;;;;8.43;2.83;;;20.80;60.70;;;;;;5042430;28;20044;-76
2023/03/31 11:29:28;;;;;;;5.97;2.75;;;20.60;59.60;;;;;;5063066;28;20043;-77
2023/03/31 11:32:53;;;;;;;6.07;2.22;;;20.80;59.80;;;;;;5039810;28;20060;-76
2023/03/31 11:35:58;;;;;;;9.82;2.70;;;20.70;58.10;;;;;;5022658;28;20059;-76
2023/03/31 11:39:19;;;;;;;6.15;2.30;;;21.10;58.10;;;;;;5052360;28;20044;-74
2023/03/31 11:41:55;;;;;;;6.50;2.60;;;21.30;58.00;;;;;;5028438;23;20057;-74
2023/03/31 11:44:26;;;;;;;7.43;2.75;;;21.20;57.30;;;;;;5050365;28;20033;-74
2023/03/31 11:47:09;;;;;;;5.35;2.67;;;21.40;56.10;;;;;;5036673;28;20032;-73
2023/03/31 11:49:55;;;;;;;6.18;2.67;;;21.30;56.70;;;;;;5046763;28;20392;-76
2023/03/31 11:52:38;;;;;;;4.43;2.47;;;21.50;56.80;;;;;;5023113;28;20045;-74
2023/03/31 11:55:25;;;;;;;6.30;2.80;;;21.50;55.80;;;;;;5030548;28;20664;-73
2023/03/31 11:58:46;;;;;;;;;;;;;;;;;;;;;
2023/03/31 12:01:55;;;;;;;10.27;4.43;;;22.20;58.70;;;;;;5046332;28;20106;-75
2023/03/31 12:04:50;;;;;;;14.73;3.30;;;22.50;55.80;;;;;;4991147;28;20060;-74
2023/03/31 12:08:06;;;;;;;7.45;2.60;;;22.90;53.70;;;;;;5033510;28;20112;-76
2023/03/31 12:11:14;;;;;;;6.13;2.65;;;22.80;53.00;;;;;;5035437;28;20399;-75
2023/03/31 12:14:07;;;;;;;6.72;2.58;;;23.00;51.80;;;;;;5037652;28;20127;-74
2023/03/31 12:17:17;;;;;;;5.68;2.50;;;22.90;51.50;;;;;;5026110;28;20033;-73
2023/03/31 12:20:09;;;;;;;8.63;2.90;;;23.10;51.80;;;;;;4996769;28;20044;-76
2023/03/31 12:22:47;;;;;;;7.05;2.45;;;23.60;51.20;;;;;;5025252;28;20053;-72
2023/03/31 12:25:27;;;;;;;5.32;2.72;;;24.70;50.50;;;;;;5049047;28;20440;-75
2023/03/31 12:27:55;;;;;;;11.65;3.65;;;26.70;47.20;;;;;;5036755;28;20131;-74
2023/03/31 12:30:41;;;;;;;7.35;2.75;;;29.00;46.40;;;;;;5031267;28;20135;-75
2023/03/31 12:33:46;;;;;;;6.47;2.55;;;30.10;43.30;;;;;;5033969;28;20072;-76
2023/03/31 12:36:50;;;;;;;;;;;;;;;;;;;;;
2023/03/31 12:39:44;;;;;;;6.30;2.45;;;28.30;43.60;;;;;;5065468;28;20067;-77
2023/03/31 12:42:59;;;;;;;6.65;2.30;;;28.30;42.40;;;;;;5016870;28;20053;-75
2023/03/31 12:45:34;;;;;;;7.05;1.90;;;29.10;42.70;;;;;;5017588;28;20464;-76
2023/03/31 12:48:34;;;;;;;4.75;1.55;;;29.50;42.30;;;;;;5058996;28;20041;-77
2023/03/31 12:51:16;;;;;;;5.88;2.30;;;29.40;41.90;;;;;;5035823;28;20110;-76
2023/03/31 12:54:00;;;;;;;5.55;2.15;;;29.10;41.90;;;;;;5048739;28;20037;-75
2023/03/31 12:57:03;;;;;;;7.30;2.83;;;29.90;41.40;;;;;;5022144;28;20053;-77
2023/03/31 12:59:40;;;;;;;5.43;2.25;;;29.90;41.90;;;;;;5021623;28;20049;-77
2023/03/31 13:02:20;;;;;;;8.20;2.78;;;29.10;42.30;;;;;;5063413;28;20486;-78
2023/03/31 13:04:50;;;;;;;5.32;2.50;;;29.20;41.80;;;;;;5017719;28;20052;-75
2023/03/31 13:07:26;;;;;;;6.93;2.08;;;29.30;41.50;;;;;;5034798;28;20055;-77
2023/03/31 13:10:21;;;;;;;8.15;2.00;;;29.20;41.60;;;;;;5032445;23;20057;-77
2023/03/31 13:13:15;;;;;;;6.10;1.83;;;29.80;41.50;;;;;;5029824;28;20405;-80
2023/03/31 13:15:55;;;;;;;4.65;1.80;;;29.20;42.10;;;;;;5034027;28;20041;-76
2023/03/31 13:18:28;;;;;;;5.03;1.98;;;29.50;41.70;;;;;;5037504;28;20044;-77
2023/03/31 13:21:04;;;;;;;6.57;1.98;;;29.90;40.40;;;;;;5030154;28;20123;-76
2023/03/31 13:23:36;;;;;;;5.88;1.90;;;30.20;40.50;;;;;;5026824;28;20049;-79
2023/03/31 13:26:05;;;;;;;6.68;1.98;;;30.60;40.30;;;;;;5042990;28;20053;-74
2023/03/31 13:28:44;;;;;;;5.57;2.10;;;29.50;40.90;;;;;;5033504;28;20373;-77
2023/03/31 13:31:14;;;;;;;6.15;1.60;;;28.60;41.00;;;;;;5021244;23;20439;-76
2023/03/31 13:33:48;;;;;;;6.32;2.53;;;28.80;41.00;;;;;;5023887;28;20042;-80
2023/03/31 13:36:30;;;;;;;7.43;1.60;;;30.10;40.60;;;;;;5018736;28;20464;-76
2023/03/31 13:39:44;;;;;;;5.32;1.75;;;30.10;40.00;;;;;;5017805;28;20046;-74
2023/03/31 13:42:25;;;;;;;5.43;1.80;;;30.40;39.40;;;;;;5014869;23;20557;-75
2023/03/31 13:44:56;;;;;;;4.25;1.90;;;30.90;38.90;;;;;;4990523;28;20069;-74